Details From LOWI - Innsbruck Kranebitten
To KRSW - Southwest Florida Intl
Flight Number -
Tags Generated
Created
Modified
Stats Distance 4,374 nm / 8,102 km
Max Altitude 0 ft / 0 m
Waypoints 7
Social Downloads 1
Likes 0
Share VATSIM

Download

Looking for another format? Having issues loading an existing format? Contact us
Advertisement - Login to hide

Notes

Generated

Route

LOWI POGOL ROUBO SMG10 ADOOR R0807 KRSW

ID Type Via Altitude Latitude Longitude Leg Dist Tot Dist Heading (true) Name
O LOWI APT - 0 ft / 0 m 47.25883˚ 11.33091˚ - 0 nm - -
POGOL FIX - 0 ft / 0 m 48.39917˚ 6.69333˚ 199 nm 199 nm 292° / 288° -
ROUBO FIX - 0 ft / 0 m 49.48850˚ 1.31589˚ 221 nm 421 nm 289° / 285° -
SMG10 FIX - 0 ft / 0 m 50.36599˚ -4.79316˚ 241 nm 662 nm 285° / 280° -
ADOOR FIX - 0 ft / 0 m 29.40008˚ -78.55569˚ 3468 nm 4131 nm 279° / 226° -
R0807 FIX - 0 ft / 0 m 26.52649˚ -81.77002˚ 242 nm 4374 nm 225° / 224° -
O KRSW APT - 0 ft / 0 m 26.52649˚ -81.77002˚ 0 nm 4374 nm 0° / 180° -

Altitude Profile

Advertisement - Login to hide

Weather


0- 5 10 15 20 25 30 35+ Temperature / ° C

Clouds and Precipitation
Forecast for 2018-05-24 18:00 UTC. Updated 4 hours ago

Ground ~20,000 ft ~40,000 ft Winds

LOWI

Details ICAO LOWI (INN)
Name Innsbruck Kranebitten
Region Austria
Timezone Europe/Vienna (UTC+2.0)
Stats Elevation 1,906 ft / 581 m (AMSL)
Location 47.260226° 11.343967°
Runways 1
Magnetic Variation 3.072° E

METAR

LOWI 242120Z AUTO 34003KT 9999 FEW030 BKN110 15/13 Q1020

Decode

TAF

TAF LOWI 241715Z 2418/2518 08005KT 9999 FEW060 SCT120 BKN300 TX25/2514Z TN12/2504Z PROB30 TEMPO 2418/2420 SHRA FEW060TCU BKN080 BECMG 2420/2422 27007KT BECMG 2508/2510 09005KT

Decode

Departure Runways

ID Width Length Bearing (true) Bearing (mag) Surface Threshold Offset Overrun Length
08 148 ft / 45 m 6,545 ft / 1,995 m 81.02° 77.95° Asphalt 338 ft / 103 m 0 ft / 0 m
26 148 ft / 45 m 6,545 ft / 1,995 m 261.04° 257.97° Asphalt 0 ft / 0 m 0 ft / 0 m

KRSW

Details ICAO KRSW (RSW)
Name Southwest Florida Intl
Region United States
Timezone America/New_York (UTC-4.0)
Stats Elevation 30 ft / 9 m (AMSL)
Location 26.536162° -81.755152°
Runways 1
Magnetic Variation 5.885° W

METAR

KRSW 242053Z 16008KT 10SM FEW110 27/22 A3002 RMK AO2 LTG DSNT SW RAB06E19 TSE1956 SLP164 P0000 60000 T02720217 58006

Decode

TAF

TAF AMD KRSW 242038Z 2421/2518 13007KT P6SM VCSH SCT030 BKN080 FM250200 VRB03KT P6SM SCT020 BKN250 FM251400 13008KT P6SM SCT025 BKN050

Decode

Destination Runways

ID Width Length Bearing (true) Bearing (mag) Surface Threshold Offset Overrun Length
06 150 ft / 46 m 12,004 ft / 3,659 m 53.96° 59.85° Asphalt 0 ft / 0 m 0 ft / 0 m
24 150 ft / 46 m 12,004 ft / 3,659 m 233.97° 239.86° Asphalt 0 ft / 0 m 0 ft / 0 m

Approach Navaids

Runway Type Ident Frequency Range Bearing (true) Bearing (mag) Slope Elevation
06 Localiser IRSW 111.50 MHz 18 nm / 33 km 53.97° 59.86° - 28 ft / 9 m (AMSL)
06 Glidescope IRSW 111.50 MHz 10 nm / 19 km 53.96° 59.85° 3.00° 27 ft / 8 m (AMSL)